Zambezi Star — 2CKK9 — position and weather

sailwx.info

Track history (hours):
 
Tides and Currents Weather Stations Pressure Air Temp Water Temp Dewpoint Dewpoint Depression Visibility Wind Speed Wind Dir Waves Ship Positions

Zambezi Star

Last reported at 2018-Feb-02 16:51 UTC. Time now 2018-Feb-24 04:17 UTC.
Position N 01°18' E 103°21'.
Warning: this ship's position is 21 days out of date.

Length 184 m; draft 11.6 m.

Type: Ship. MMSI: 235073548.

Date/timePositionNaut miles runAvg speedWind from/ knotsBaromVisibWave heightAir tempDewpointWater temp
2018-Feb-02 16:51N 01°18' E 103°21'4 9.7
2018-Feb-02 16:29N 01°15' E 103°24'1010.6
2018-Feb-02 15:30N 01°12' E 103°34'1111.3
2018-Feb-02 14:30N 01°08' E 103°44'611.7
2018-Feb-02 14:00N 01°11' E 103°49'612.2
2018-Feb-02 13:30N 01°14' E 103°55'  
2018-Jan-31 03:38N 01°14' E 104°03'211.4
2018-Jan-31 03:28N 01°16' E 104°01'3 0.4
2018-Jan-30 21:06N 01°17' E 103°60'0 0.0
2018-Jan-30 20:51N 01°17' E 103°60'0 0.1
2018-Jan-30 20:24N 01°17' E 103°60'0 0.0
2018-Jan-30 19:51N 01°17' E 103°60'1 0.1
2018-Jan-30 14:16N 01°17' E 103°59'5 6.0
2018-Jan-30 13:30N 01°14' E 103°56'4 8.6
2018-Jan-30 12:59N 01°11' E 103°52'3 6.4
2018-Jan-30 12:30N 01°10' E 103°49'4 7.0
2018-Jan-30 11:59N 01°08' E 103°46'511.1
2018-Jan-30 11:30N 01°04' E 103°42'10 9.8
2018-Jan-30 10:30N 01°06' E 103°32'  
2018-Jan-26 00:54N 01°19' E 103°20'512.0
2018-Jan-26 00:30N 01°16' E 103°23'611.6
2018-Jan-25 23:58N 01°13' E 103°29'511.6
2018-Jan-25 23:30N 01°12' E 103°34'611.2
2018-Jan-25 23:00N 01°11' E 103°40'611.0
2018-Jan-25 22:30N 01°08' E 103°44'612.9
2018-Jan-25 22:00N 01°11' E 103°50'713.1
2018-Jan-25 21:29N 01°14' E 103°56'  
Track history (hours):
 
Tides and Currents Weather Stations Pressure Air Temp Water Temp Dewpoint Dewpoint Depression Visibility Wind Speed Wind Dir Waves Ship Positions

Zambezi Star

Last reported at 2018-Feb-02 16:51 UTC. Time now 2018-Feb-24 04:17 UTC.
Position N 01°18' E 103°21'.
Warning: this ship's position is 21 days out of date.

Length 184 m; draft 11.6 m.

Type: Ship. MMSI: 235073548.

Date/timePositionNaut miles runAvg speedWind from/ knotsBaromVisibWave heightAir tempDewpointWater temp
2018-Feb-02 16:51N 01°18' E 103°21'4 9.7
2018-Feb-02 16:29N 01°15' E 103°24'1010.6
2018-Feb-02 15:30N 01°12' E 103°34'1111.3
2018-Feb-02 14:30N 01°08' E 103°44'611.7
2018-Feb-02 14:00N 01°11' E 103°49'612.2
2018-Feb-02 13:30N 01°14' E 103°55'  
2018-Jan-31 03:38N 01°14' E 104°03'211.4
2018-Jan-31 03:28N 01°16' E 104°01'3 0.4
2018-Jan-30 21:06N 01°17' E 103°60'0 0.0
2018-Jan-30 20:51N 01°17' E 103°60'0 0.1
2018-Jan-30 20:24N 01°17' E 103°60'0 0.0
2018-Jan-30 19:51N 01°17' E 103°60'1 0.1
2018-Jan-30 14:16N 01°17' E 103°59'5 6.0
2018-Jan-30 13:30N 01°14' E 103°56'4 8.6
2018-Jan-30 12:59N 01°11' E 103°52'3 6.4
2018-Jan-30 12:30N 01°10' E 103°49'4 7.0
2018-Jan-30 11:59N 01°08' E 103°46'511.1
2018-Jan-30 11:30N 01°04' E 103°42'10 9.8
2018-Jan-30 10:30N 01°06' E 103°32'  
2018-Jan-26 00:54N 01°19' E 103°20'512.0
2018-Jan-26 00:30N 01°16' E 103°23'611.6
2018-Jan-25 23:58N 01°13' E 103°29'511.6
2018-Jan-25 23:30N 01°12' E 103°34'611.2
2018-Jan-25 23:00N 01°11' E 103°40'611.0
2018-Jan-25 22:30N 01°08' E 103°44'612.9
2018-Jan-25 22:00N 01°11' E 103°50'713.1
2018-Jan-25 21:29N 01°14' E 103°56'  

Dump ship's entire track history